sensor_id;sensor_type;location;lat;lon;timestamp;P1;durP1;ratioP1;P2;durP2;ratioP2
8540;SDS011;4308;51.294;6.590;2024-01-25T00:00:11;40.43;;;9.33;;
8540;SDS011;4308;51.294;6.590;2024-01-25T00:02:39;45.57;;;9.27;;
8540;SDS011;4308;51.294;6.590;2024-01-25T00:05:06;39.50;;;9.57;;
8540;SDS011;4308;51.294;6.590;2024-01-25T00:07:34;44.10;;;9.90;;
8540;SDS011;4308;51.294;6.590;2024-01-25T00:10:03;36.67;;;9.43;;
8540;SDS011;4308;51.294;6.590;2024-01-25T00:12:30;44.97;;;10.43;;
8540;SDS011;4308;51.294;6.590;2024-01-25T00:14:58;41.97;;;9.93;;
8540;SDS011;4308;51.294;6.590;2024-01-25T00:17:25;41.40;;;10.30;;
8540;SDS011;4308;51.294;6.590;2024-01-25T00:19:53;38.63;;;9.30;;
8540;SDS011;4308;51.294;6.590;2024-01-25T00:22:21;44.13;;;9.23;;
8540;SDS011;4308;51.294;6.590;2024-01-25T00:24:48;40.27;;;9.33;;
8540;SDS011;4308;51.294;6.590;2024-01-25T00:27:16;50.23;;;10.23;;
8540;SDS011;4308;51.294;6.590;2024-01-25T00:29:44;42.30;;;8.83;;
8540;SDS011;4308;51.294;6.590;2024-01-25T00:32:11;44.00;;;9.23;;
8540;SDS011;4308;51.294;6.590;2024-01-25T00:34:39;38.73;;;9.53;;
8540;SDS011;4308;51.294;6.590;2024-01-25T00:37:07;42.27;;;9.53;;
8540;SDS011;4308;51.294;6.590;2024-01-25T00:39:35;53.67;;;10.27;;
8540;SDS011;4308;51.294;6.590;2024-01-25T00:42:03;44.67;;;9.87;;
8540;SDS011;4308;51.294;6.590;2024-01-25T00:44:31;48.53;;;10.23;;
8540;SDS011;4308;51.294;6.590;2024-01-25T00:46:59;46.57;;;9.57;;
8540;SDS011;4308;51.294;6.590;2024-01-25T00:49:27;39.73;;;8.30;;
8540;SDS011;4308;51.294;6.590;2024-01-25T00:51:58;50.40;;;10.40;;
8540;SDS011;4308;51.294;6.590;2024-01-25T00:54:27;47.70;;;9.47;;
8540;SDS011;4308;51.294;6.590;2024-01-25T00:56:55;47.73;;;9.53;;
8540;SDS011;4308;51.294;6.590;2024-01-25T00:59:22;46.47;;;9.60;;
8540;SDS011;4308;51.294;6.590;2024-01-25T01:01:50;45.33;;;9.73;;
8540;SDS011;4308;51.294;6.590;2024-01-25T01:04:20;41.73;;;9.80;;
8540;SDS011;4308;51.294;6.590;2024-01-25T01:06:48;42.27;;;9.53;;
8540;SDS011;4308;51.294;6.590;2024-01-25T01:09:15;36.53;;;9.07;;
8540;SDS011;4308;51.294;6.590;2024-01-25T01:11:43;44.50;;;9.73;;
8540;SDS011;4308;51.294;6.590;2024-01-25T01:14:11;54.57;;;8.77;;
8540;SDS011;4308;51.294;6.590;2024-01-25T01:16:38;61.97;;;10.57;;
8540;SDS011;4308;51.294;6.590;2024-01-25T01:19:06;49.90;;;9.23;;
8540;SDS011;4308;51.294;6.590;2024-01-25T01:21:34;42.60;;;9.33;;
8540;SDS011;4308;51.294;6.590;2024-01-25T01:24:02;45.93;;;9.90;;
8540;SDS011;4308;51.294;6.590;2024-01-25T01:26:30;58.53;;;10.17;;
8540;SDS011;4308;51.294;6.590;2024-01-25T01:28:58;45.33;;;9.90;;
8540;SDS011;4308;51.294;6.590;2024-01-25T01:31:25;46.67;;;10.13;;
8540;SDS011;4308;51.294;6.590;2024-01-25T01:33:53;51.77;;;9.90;;
8540;SDS011;4308;51.294;6.590;2024-01-25T01:36:21;45.87;;;9.50;;
8540;SDS011;4308;51.294;6.590;2024-01-25T01:38:48;42.53;;;9.13;;
8540;SDS011;4308;51.294;6.590;2024-01-25T01:41:16;42.03;;;9.03;;
8540;SDS011;4308;51.294;6.590;2024-01-25T01:43:44;42.87;;;9.50;;
8540;SDS011;4308;51.294;6.590;2024-01-25T01:46:22;45.33;;;10.60;;
8540;SDS011;4308;51.294;6.590;2024-01-25T01:48:55;54.50;;;10.23;;
8540;SDS011;4308;51.294;6.590;2024-01-25T01:51:23;54.30;;;11.07;;
8540;SDS011;4308;51.294;6.590;2024-01-25T01:53:51;45.53;;;9.97;;
8540;SDS011;4308;51.294;6.590;2024-01-25T01:56:19;54.07;;;9.97;;
8540;SDS011;4308;51.294;6.590;2024-01-25T01:58:47;42.00;;;9.23;;
8540;SDS011;4308;51.294;6.590;2024-01-25T02:01:15;48.67;;;9.40;;
8540;SDS011;4308;51.294;6.590;2024-01-25T02:03:43;51.07;;;10.90;;
8540;SDS011;4308;51.294;6.590;2024-01-25T02:06:10;41.07;;;9.83;;
8540;SDS011;4308;51.294;6.590;2024-01-25T02:08:38;46.73;;;10.80;;
8540;SDS011;4308;51.294;6.590;2024-01-25T02:11:06;50.70;;;10.27;;
8540;SDS011;4308;51.294;6.590;2024-01-25T02:13:33;49.87;;;10.03;;
8540;SDS011;4308;51.294;6.590;2024-01-25T02:16:01;50.97;;;9.63;;
8540;SDS011;4308;51.294;6.590;2024-01-25T02:18:29;46.87;;;9.70;;
8540;SDS011;4308;51.294;6.590;2024-01-25T02:20:57;49.17;;;9.73;;
8540;SDS011;4308;51.294;6.590;2024-01-25T02:23:25;35.83;;;8.97;;
8540;SDS011;4308;51.294;6.590;2024-01-25T02:25:53;53.13;;;9.57;;
8540;SDS011;4308;51.294;6.590;2024-01-25T02:28:21;51.90;;;11.03;;
8540;SDS011;4308;51.294;6.590;2024-01-25T02:30:49;58.73;;;9.77;;
8540;SDS011;4308;51.294;6.590;2024-01-25T02:33:17;39.30;;;9.17;;
8540;SDS011;4308;51.294;6.590;2024-01-25T02:35:45;42.50;;;10.40;;
8540;SDS011;4308;51.294;6.590;2024-01-25T02:38:12;48.80;;;10.20;;
8540;SDS011;4308;51.294;6.590;2024-01-25T02:40:40;54.47;;;10.40;;
8540;SDS011;4308;51.294;6.590;2024-01-25T02:43:07;47.10;;;9.30;;
8540;SDS011;4308;51.294;6.590;2024-01-25T02:45:35;46.87;;;10.10;;
8540;SDS011;4308;51.294;6.590;2024-01-25T02:48:03;49.10;;;9.87;;
8540;SDS011;4308;51.294;6.590;2024-01-25T02:50:31;51.60;;;9.90;;
8540;SDS011;4308;51.294;6.590;2024-01-25T02:52:58;48.53;;;9.90;;
8540;SDS011;4308;51.294;6.590;2024-01-25T02:55:26;58.70;;;10.20;;
8540;SDS011;4308;51.294;6.590;2024-01-25T02:57:54;58.13;;;9.67;;
8540;SDS011;4308;51.294;6.590;2024-01-25T03:00:21;51.17;;;9.87;;
8540;SDS011;4308;51.294;6.590;2024-01-25T03:02:49;47.43;;;10.00;;
8540;SDS011;4308;51.294;6.590;2024-01-25T03:05:17;45.20;;;9.80;;
8540;SDS011;4308;51.294;6.590;2024-01-25T03:07:45;53.07;;;10.93;;
8540;SDS011;4308;51.294;6.590;2024-01-25T03:10:13;52.17;;;10.63;;
8540;SDS011;4308;51.294;6.590;2024-01-25T03:12:40;47.90;;;9.47;;
8540;SDS011;4308;51.294;6.590;2024-01-25T03:15:09;48.13;;;10.07;;
8540;SDS011;4308;51.294;6.590;2024-01-25T03:17:37;50.00;;;9.80;;
8540;SDS011;4308;51.294;6.590;2024-01-25T03:20:05;50.60;;;10.23;;
8540;SDS011;4308;51.294;6.590;2024-01-25T03:22:33;49.00;;;10.07;;
8540;SDS011;4308;51.294;6.590;2024-01-25T03:25:00;59.47;;;10.50;;
8540;SDS011;4308;51.294;6.590;2024-01-25T03:27:28;59.80;;;10.23;;
8540;SDS011;4308;51.294;6.590;2024-01-25T03:29:56;42.43;;;10.17;;
8540;SDS011;4308;51.294;6.590;2024-01-25T03:32:23;47.07;;;10.00;;
8540;SDS011;4308;51.294;6.590;2024-01-25T03:34:51;60.70;;;10.90;;
8540;SDS011;4308;51.294;6.590;2024-01-25T03:37:19;52.37;;;10.17;;
8540;SDS011;4308;51.294;6.590;2024-01-25T03:39:47;51.17;;;10.80;;
8540;SDS011;4308;51.294;6.590;2024-01-25T03:42:14;44.97;;;9.70;;
8540;SDS011;4308;51.294;6.590;2024-01-25T03:44:42;66.57;;;11.17;;
8540;SDS011;4308;51.294;6.590;2024-01-25T03:47:10;53.07;;;10.23;;
8540;SDS011;4308;51.294;6.590;2024-01-25T03:49:38;44.47;;;10.03;;
8540;SDS011;4308;51.294;6.590;2024-01-25T03:52:06;47.53;;;10.30;;
8540;SDS011;4308;51.294;6.590;2024-01-25T03:54:33;48.80;;;10.53;;
8540;SDS011;4308;51.294;6.590;2024-01-25T03:57:01;46.73;;;10.17;;
8540;SDS011;4308;51.294;6.590;2024-01-25T03:59:29;65.20;;;10.90;;
8540;SDS011;4308;51.294;6.590;2024-01-25T04:01:57;51.73;;;9.90;;
8540;SDS011;4308;51.294;6.590;2024-01-25T04:04:25;43.37;;;8.93;;
8540;SDS011;4308;51.294;6.590;2024-01-25T04:06:52;58.60;;;10.30;;
8540;SDS011;4308;51.294;6.590;2024-01-25T04:09:20;50.33;;;10.60;;
8540;SDS011;4308;51.294;6.590;2024-01-25T04:11:48;59.47;;;10.87;;
8540;SDS011;4308;51.294;6.590;2024-01-25T04:14:16;56.37;;;10.43;;
8540;SDS011;4308;51.294;6.590;2024-01-25T04:16:44;58.73;;;10.73;;
8540;SDS011;4308;51.294;6.590;2024-01-25T04:19:11;52.20;;;10.23;;
8540;SDS011;4308;51.294;6.590;2024-01-25T04:21:39;55.53;;;10.77;;
8540;SDS011;4308;51.294;6.590;2024-01-25T04:24:07;59.23;;;11.20;;
8540;SDS011;4308;51.294;6.590;2024-01-25T04:26:35;55.47;;;11.33;;
8540;SDS011;4308;51.294;6.590;2024-01-25T04:29:02;54.10;;;10.70;;
8540;SDS011;4308;51.294;6.590;2024-01-25T04:31:30;66.07;;;10.57;;
8540;SDS011;4308;51.294;6.590;2024-01-25T04:33:57;61.23;;;11.50;;
8540;SDS011;4308;51.294;6.590;2024-01-25T04:36:25;53.07;;;11.07;;
8540;SDS011;4308;51.294;6.590;2024-01-25T04:38:53;58.37;;;11.73;;
8540;SDS011;4308;51.294;6.590;2024-01-25T04:41:20;58.63;;;11.70;;
8540;SDS011;4308;51.294;6.590;2024-01-25T04:43:48;58.73;;;11.23;;
8540;SDS011;4308;51.294;6.590;2024-01-25T04:46:16;57.60;;;10.97;;
8540;SDS011;4308;51.294;6.590;2024-01-25T04:48:44;62.03;;;10.87;;
8540;SDS011;4308;51.294;6.590;2024-01-25T04:51:18;63.83;;;11.43;;
8540;SDS011;4308;51.294;6.590;2024-01-25T04:53:46;65.67;;;10.30;;
8540;SDS011;4308;51.294;6.590;2024-01-25T04:56:13;60.20;;;10.47;;
8540;SDS011;4308;51.294;6.590;2024-01-25T04:58:41;54.80;;;10.93;;
8540;SDS011;4308;51.294;6.590;2024-01-25T05:01:08;68.47;;;12.30;;
8540;SDS011;4308;51.294;6.590;2024-01-25T05:03:36;66.60;;;12.17;;
8540;SDS011;4308;51.294;6.590;2024-01-25T05:06:04;56.67;;;11.03;;
8540;SDS011;4308;51.294;6.590;2024-01-25T05:08:32;63.43;;;11.57;;
8540;SDS011;4308;51.294;6.590;2024-01-25T05:11:00;65.20;;;11.50;;
8540;SDS011;4308;51.294;6.590;2024-01-25T05:13:28;59.37;;;11.70;;
8540;SDS011;4308;51.294;6.590;2024-01-25T05:15:55;63.07;;;12.03;;
8540;SDS011;4308;51.294;6.590;2024-01-25T05:18:23;65.63;;;11.53;;
8540;SDS011;4308;51.294;6.590;2024-01-25T05:20:51;66.60;;;11.57;;
8540;SDS011;4308;51.294;6.590;2024-01-25T05:23:19;63.60;;;11.97;;
8540;SDS011;4308;51.294;6.590;2024-01-25T05:25:46;81.83;;;12.67;;
8540;SDS011;4308;51.294;6.590;2024-01-25T05:28:14;54.67;;;11.20;;
8540;SDS011;4308;51.294;6.590;2024-01-25T05:30:41;61.27;;;10.97;;
8540;SDS011;4308;51.294;6.590;2024-01-25T05:33:09;61.80;;;10.70;;
8540;SDS011;4308;51.294;6.590;2024-01-25T05:35:37;61.40;;;12.37;;
8540;SDS011;4308;51.294;6.590;2024-01-25T05:38:05;65.83;;;11.87;;
8540;SDS011;4308;51.294;6.590;2024-01-25T05:40:34;69.97;;;12.00;;
8540;SDS011;4308;51.294;6.590;2024-01-25T05:43:02;57.53;;;11.67;;
8540;SDS011;4308;51.294;6.590;2024-01-25T05:45:29;53.60;;;11.40;;
8540;SDS011;4308;51.294;6.590;2024-01-25T05:47:57;64.13;;;11.83;;
8540;SDS011;4308;51.294;6.590;2024-01-25T05:50:25;71.10;;;12.43;;
8540;SDS011;4308;51.294;6.590;2024-01-25T05:52:53;64.83;;;12.53;;
8540;SDS011;4308;51.294;6.590;2024-01-25T05:55:20;57.07;;;11.27;;
8540;SDS011;4308;51.294;6.590;2024-01-25T05:57:48;55.77;;;10.53;;
8540;SDS011;4308;51.294;6.590;2024-01-25T06:00:16;56.17;;;10.40;;
8540;SDS011;4308;51.294;6.590;2024-01-25T06:02:47;59.57;;;11.47;;
8540;SDS011;4308;51.294;6.590;2024-01-25T06:05:16;71.30;;;13.37;;
8540;SDS011;4308;51.294;6.590;2024-01-25T06:07:44;51.43;;;11.70;;
8540;SDS011;4308;51.294;6.590;2024-01-25T06:10:12;50.37;;;11.63;;
8540;SDS011;4308;51.294;6.590;2024-01-25T06:12:39;64.17;;;11.93;;
8540;SDS011;4308;51.294;6.590;2024-01-25T06:15:07;63.73;;;11.90;;
8540;SDS011;4308;51.294;6.590;2024-01-25T06:17:35;64.13;;;11.27;;
8540;SDS011;4308;51.294;6.590;2024-01-25T06:20:03;69.67;;;12.83;;
8540;SDS011;4308;51.294;6.590;2024-01-25T06:22:31;67.93;;;13.10;;
8540;SDS011;4308;51.294;6.590;2024-01-25T06:24:58;55.47;;;11.33;;
8540;SDS011;4308;51.294;6.590;2024-01-25T06:27:26;83.87;;;13.97;;
8540;SDS011;4308;51.294;6.590;2024-01-25T06:29:54;58.20;;;10.83;;
8540;SDS011;4308;51.294;6.590;2024-01-25T06:32:21;54.37;;;11.87;;
8540;SDS011;4308;51.294;6.590;2024-01-25T06:34:53;57.27;;;11.17;;
8540;SDS011;4308;51.294;6.590;2024-01-25T06:37:21;50.87;;;10.93;;
8540;SDS011;4308;51.294;6.590;2024-01-25T06:39:49;68.80;;;11.53;;
8540;SDS011;4308;51.294;6.590;2024-01-25T06:42:16;63.03;;;11.87;;
8540;SDS011;4308;51.294;6.590;2024-01-25T06:44:44;56.77;;;11.07;;
8540;SDS011;4308;51.294;6.590;2024-01-25T06:47:12;59.30;;;11.07;;
8540;SDS011;4308;51.294;6.590;2024-01-25T06:49:40;59.13;;;11.67;;
8540;SDS011;4308;51.294;6.590;2024-01-25T06:52:07;65.27;;;12.50;;
8540;SDS011;4308;51.294;6.590;2024-01-25T06:54:35;55.47;;;10.60;;
8540;SDS011;4308;51.294;6.590;2024-01-25T06:57:03;67.53;;;11.80;;
8540;SDS011;4308;51.294;6.590;2024-01-25T06:59:30;54.80;;;11.80;;
8540;SDS011;4308;51.294;6.590;2024-01-25T07:01:59;65.10;;;11.50;;
8540;SDS011;4308;51.294;6.590;2024-01-25T07:04:27;50.70;;;11.80;;
8540;SDS011;4308;51.294;6.590;2024-01-25T07:06:55;65.53;;;11.70;;
8540;SDS011;4308;51.294;6.590;2024-01-25T07:09:23;55.43;;;11.93;;
8540;SDS011;4308;51.294;6.590;2024-01-25T07:11:51;68.97;;;12.20;;
8540;SDS011;4308;51.294;6.590;2024-01-25T07:14:18;55.60;;;11.60;;
8540;SDS011;4308;51.294;6.590;2024-01-25T07:16:46;59.10;;;10.97;;
8540;SDS011;4308;51.294;6.590;2024-01-25T07:19:14;50.57;;;12.97;;
8540;SDS011;4308;51.294;6.590;2024-01-25T07:21:41;71.37;;;13.00;;
8540;SDS011;4308;51.294;6.590;2024-01-25T07:24:09;54.50;;;11.17;;
8540;SDS011;4308;51.294;6.590;2024-01-25T07:26:37;62.50;;;12.43;;
8540;SDS011;4308;51.294;6.590;2024-01-25T07:29:04;64.70;;;13.73;;
8540;SDS011;4308;51.294;6.590;2024-01-25T07:31:32;66.63;;;13.57;;
8540;SDS011;4308;51.294;6.590;2024-01-25T07:34:00;59.60;;;12.03;;
8540;SDS011;4308;51.294;6.590;2024-01-25T07:36:28;51.70;;;12.07;;
8540;SDS011;4308;51.294;6.590;2024-01-25T07:38:55;53.60;;;11.30;;
8540;SDS011;4308;51.294;6.590;2024-01-25T07:41:23;67.23;;;13.57;;
8540;SDS011;4308;51.294;6.590;2024-01-25T07:43:50;63.17;;;12.00;;
8540;SDS011;4308;51.294;6.590;2024-01-25T07:46:18;50.43;;;12.13;;
8540;SDS011;4308;51.294;6.590;2024-01-25T07:48:46;60.97;;;11.97;;
8540;SDS011;4308;51.294;6.590;2024-01-25T07:51:14;56.67;;;12.20;;
8540;SDS011;4308;51.294;6.590;2024-01-25T07:53:42;54.47;;;11.53;;
8540;SDS011;4308;51.294;6.590;2024-01-25T07:56:10;41.60;;;9.87;;
8540;SDS011;4308;51.294;6.590;2024-01-25T07:58:38;62.60;;;12.80;;
8540;SDS011;4308;51.294;6.590;2024-01-25T08:01:06;48.30;;;11.30;;
8540;SDS011;4308;51.294;6.590;2024-01-25T08:03:33;61.63;;;12.13;;
8540;SDS011;4308;51.294;6.590;2024-01-25T08:06:02;48.90;;;10.27;;
8540;SDS011;4308;51.294;6.590;2024-01-25T08:08:30;53.83;;;10.93;;
8540;SDS011;4308;51.294;6.590;2024-01-25T08:10:58;56.93;;;12.27;;
8540;SDS011;4308;51.294;6.590;2024-01-25T08:13:25;55.80;;;11.93;;
8540;SDS011;4308;51.294;6.590;2024-01-25T08:15:53;52.17;;;11.70;;
8540;SDS011;4308;51.294;6.590;2024-01-25T08:18:21;48.40;;;10.90;;
8540;SDS011;4308;51.294;6.590;2024-01-25T08:20:49;60.07;;;12.30;;
8540;SDS011;4308;51.294;6.590;2024-01-25T08:23:17;52.93;;;12.97;;
8540;SDS011;4308;51.294;6.590;2024-01-25T08:25:45;48.27;;;10.47;;
8540;SDS011;4308;51.294;6.590;2024-01-25T08:28:12;55.40;;;11.67;;
8540;SDS011;4308;51.294;6.590;2024-01-25T08:30:40;40.90;;;10.87;;
8540;SDS011;4308;51.294;6.590;2024-01-25T08:33:08;48.80;;;11.43;;
8540;SDS011;4308;51.294;6.590;2024-01-25T08:35:35;63.17;;;12.60;;
8540;SDS011;4308;51.294;6.590;2024-01-25T08:38:04;63.57;;;12.53;;
8540;SDS011;4308;51.294;6.590;2024-01-25T08:40:31;47.47;;;11.53;;
8540;SDS011;4308;51.294;6.590;2024-01-25T08:43:02;55.87;;;12.97;;
8540;SDS011;4308;51.294;6.590;2024-01-25T08:45:29;54.03;;;12.70;;
8540;SDS011;4308;51.294;6.590;2024-01-25T08:47:57;55.40;;;13.77;;
8540;SDS011;4308;51.294;6.590;2024-01-25T08:50:25;58.10;;;13.17;;
8540;SDS011;4308;51.294;6.590;2024-01-25T08:52:53;53.83;;;13.80;;
8540;SDS011;4308;51.294;6.590;2024-01-25T08:55:21;54.27;;;13.27;;
8540;SDS011;4308;51.294;6.590;2024-01-25T08:57:49;56.30;;;14.53;;
8540;SDS011;4308;51.294;6.590;2024-01-25T09:00:17;56.03;;;14.90;;
8540;SDS011;4308;51.294;6.590;2024-01-25T09:02:45;56.20;;;14.93;;
8540;SDS011;4308;51.294;6.590;2024-01-25T09:05:13;60.93;;;14.40;;
8540;SDS011;4308;51.294;6.590;2024-01-25T09:07:41;64.20;;;16.47;;
8540;SDS011;4308;51.294;6.590;2024-01-25T09:10:09;62.40;;;16.80;;
8540;SDS011;4308;51.294;6.590;2024-01-25T09:12:37;63.40;;;18.43;;
8540;SDS011;4308;51.294;6.590;2024-01-25T09:15:05;59.80;;;19.20;;
8540;SDS011;4308;51.294;6.590;2024-01-25T09:17:33;86.23;;;21.63;;
8540;SDS011;4308;51.294;6.590;2024-01-25T09:20:01;69.60;;;21.07;;
8540;SDS011;4308;51.294;6.590;2024-01-25T09:22:29;70.23;;;20.13;;
8540;SDS011;4308;51.294;6.590;2024-01-25T09:24:57;68.93;;;20.30;;
8540;SDS011;4308;51.294;6.590;2024-01-25T09:27:24;61.17;;;20.30;;
8540;SDS011;4308;51.294;6.590;2024-01-25T09:29:52;70.23;;;21.93;;
8540;SDS011;4308;51.294;6.590;2024-01-25T09:32:20;66.97;;;20.23;;
8540;SDS011;4308;51.294;6.590;2024-01-25T09:34:47;69.47;;;21.63;;
8540;SDS011;4308;51.294;6.590;2024-01-25T09:37:15;68.43;;;22.27;;
8540;SDS011;4308;51.294;6.590;2024-01-25T09:39:43;71.37;;;21.87;;
8540;SDS011;4308;51.294;6.590;2024-01-25T09:42:11;76.93;;;23.03;;
8540;SDS011;4308;51.294;6.590;2024-01-25T09:44:39;67.23;;;23.53;;
8540;SDS011;4308;51.294;6.590;2024-01-25T09:47:07;69.40;;;22.00;;
8540;SDS011;4308;51.294;6.590;2024-01-25T09:49:36;66.03;;;22.57;;
8540;SDS011;4308;51.294;6.590;2024-01-25T13:02:00;53.30;;;22.77;;
8540;SDS011;4308;51.294;6.590;2024-01-25T13:04:28;63.17;;;21.57;;
8540;SDS011;4308;51.294;6.590;2024-01-25T13:06:56;56.63;;;21.13;;
8540;SDS011;4308;51.294;6.590;2024-01-25T13:09:24;62.63;;;22.47;;
8540;SDS011;4308;51.294;6.590;2024-01-25T13:11:52;52.27;;;20.50;;
8540;SDS011;4308;51.294;6.590;2024-01-25T13:14:19;54.13;;;21.00;;
8540;SDS011;4308;51.294;6.590;2024-01-25T13:16:47;55.17;;;22.03;;
8540;SDS011;4308;51.294;6.590;2024-01-25T13:19:15;56.30;;;20.90;;
8540;SDS011;4308;51.294;6.590;2024-01-25T13:21:42;45.80;;;18.93;;
8540;SDS011;4308;51.294;6.590;2024-01-25T13:24:10;54.87;;;19.53;;
8540;SDS011;4308;51.294;6.590;2024-01-25T13:26:38;52.37;;;18.20;;
8540;SDS011;4308;51.294;6.590;2024-01-25T13:29:05;48.13;;;19.03;;
8540;SDS011;4308;51.294;6.590;2024-01-25T13:31:33;47.47;;;18.50;;
8540;SDS011;4308;51.294;6.590;2024-01-25T13:34:01;46.43;;;17.63;;
8540;SDS011;4308;51.294;6.590;2024-01-25T13:36:28;51.60;;;17.93;;
8540;SDS011;4308;51.294;6.590;2024-01-25T13:38:56;50.83;;;18.23;;
8540;SDS011;4308;51.294;6.590;2024-01-25T13:41:24;44.13;;;16.30;;
8540;SDS011;4308;51.294;6.590;2024-01-25T13:43:52;41.97;;;17.10;;
8540;SDS011;4308;51.294;6.590;2024-01-25T13:46:19;50.77;;;18.67;;
8540;SDS011;4308;51.294;6.590;2024-01-25T13:48:49;52.20;;;18.30;;
8540;SDS011;4308;51.294;6.590;2024-01-25T13:51:17;47.97;;;18.37;;
8540;SDS011;4308;51.294;6.590;2024-01-25T13:53:45;52.50;;;17.53;;
8540;SDS011;4308;51.294;6.590;2024-01-25T13:56:12;48.77;;;18.57;;
8540;SDS011;4308;51.294;6.590;2024-01-25T13:58:40;56.77;;;19.30;;
8540;SDS011;4308;51.294;6.590;2024-01-25T14:01:08;51.03;;;18.27;;
8540;SDS011;4308;51.294;6.590;2024-01-25T14:03:35;58.37;;;17.50;;
8540;SDS011;4308;51.294;6.590;2024-01-25T14:06:03;49.13;;;16.43;;
8540;SDS011;4308;51.294;6.590;2024-01-25T14:08:32;42.80;;;15.97;;
8540;SDS011;4308;51.294;6.590;2024-01-25T14:10:59;47.60;;;16.03;;
8540;SDS011;4308;51.294;6.590;2024-01-25T14:13:27;49.90;;;15.80;;
8540;SDS011;4308;51.294;6.590;2024-01-25T14:15:55;47.50;;;16.67;;
8540;SDS011;4308;51.294;6.590;2024-01-25T14:18:23;51.83;;;17.30;;
8540;SDS011;4308;51.294;6.590;2024-01-25T14:20:51;42.17;;;16.17;;
8540;SDS011;4308;51.294;6.590;2024-01-25T14:23:18;45.30;;;16.17;;
8540;SDS011;4308;51.294;6.590;2024-01-25T14:25:46;43.90;;;15.20;;
8540;SDS011;4308;51.294;6.590;2024-01-25T14:28:14;49.00;;;15.10;;
8540;SDS011;4308;51.294;6.590;2024-01-25T14:30:42;47.63;;;14.33;;
8540;SDS011;4308;51.294;6.590;2024-01-25T14:33:09;49.33;;;14.70;;
8540;SDS011;4308;51.294;6.590;2024-01-25T14:35:37;49.20;;;13.60;;
8540;SDS011;4308;51.294;6.590;2024-01-25T14:38:05;44.57;;;14.80;;
8540;SDS011;4308;51.294;6.590;2024-01-25T14:40:32;38.43;;;14.33;;
8540;SDS011;4308;51.294;6.590;2024-01-25T14:43:20;37.60;;;14.43;;
8540;SDS011;4308;51.294;6.590;2024-01-25T14:45:48;47.60;;;15.00;;
8540;SDS011;4308;51.294;6.590;2024-01-25T14:48:15;37.57;;;14.53;;
8540;SDS011;4308;51.294;6.590;2024-01-25T14:50:43;52.63;;;16.73;;
8540;SDS011;4308;51.294;6.590;2024-01-25T14:53:11;45.83;;;15.90;;
8540;SDS011;4308;51.294;6.590;2024-01-25T14:55:38;43.87;;;15.33;;
8540;SDS011;4308;51.294;6.590;2024-01-25T14:58:06;46.97;;;14.83;;
8540;SDS011;4308;51.294;6.590;2024-01-25T15:00:34;46.97;;;15.03;;
8540;SDS011;4308;51.294;6.590;2024-01-25T15:03:01;48.17;;;15.03;;
8540;SDS011;4308;51.294;6.590;2024-01-25T15:05:32;47.87;;;15.47;;
8540;SDS011;4308;51.294;6.590;2024-01-25T15:08:09;45.93;;;15.33;;
8540;SDS011;4308;51.294;6.590;2024-01-25T15:10:36;46.63;;;14.17;;
8540;SDS011;4308;51.294;6.590;2024-01-25T15:13:04;40.13;;;13.87;;
8540;SDS011;4308;51.294;6.590;2024-01-25T15:15:32;46.37;;;14.33;;
8540;SDS011;4308;51.294;6.590;2024-01-25T15:17:59;45.33;;;13.50;;
8540;SDS011;4308;51.294;6.590;2024-01-25T15:20:27;44.10;;;13.83;;
8540;SDS011;4308;51.294;6.590;2024-01-25T15:22:55;51.30;;;13.90;;
8540;SDS011;4308;51.294;6.590;2024-01-25T15:25:23;31.07;;;12.13;;
8540;SDS011;4308;51.294;6.590;2024-01-25T15:27:50;41.23;;;13.60;;
8540;SDS011;4308;51.294;6.590;2024-01-25T15:30:18;41.07;;;12.47;;
8540;SDS011;4308;51.294;6.590;2024-01-25T15:32:46;36.10;;;12.77;;
8540;SDS011;4308;51.294;6.590;2024-01-25T15:35:14;43.17;;;12.83;;
8540;SDS011;4308;51.294;6.590;2024-01-25T15:37:42;37.30;;;11.97;;
8540;SDS011;4308;51.294;6.590;2024-01-25T15:40:09;40.23;;;13.17;;
8540;SDS011;4308;51.294;6.590;2024-01-25T15:42:38;41.20;;;13.37;;
8540;SDS011;4308;51.294;6.590;2024-01-25T15:45:06;42.33;;;12.90;;
8540;SDS011;4308;51.294;6.590;2024-01-25T15:47:34;50.57;;;13.97;;
8540;SDS011;4308;51.294;6.590;2024-01-25T15:50:02;46.80;;;12.57;;
8540;SDS011;4308;51.294;6.590;2024-01-25T15:52:31;56.90;;;13.67;;
8540;SDS011;4308;51.294;6.590;2024-01-25T15:54:58;44.87;;;14.63;;
8540;SDS011;4308;51.294;6.590;2024-01-25T15:57:26;49.77;;;13.50;;
8540;SDS011;4308;51.294;6.590;2024-01-25T15:59:58;45.80;;;13.80;;
8540;SDS011;4308;51.294;6.590;2024-01-25T16:02:28;48.00;;;14.27;;
8540;SDS011;4308;51.294;6.590;2024-01-25T16:04:56;46.37;;;13.27;;
8540;SDS011;4308;51.294;6.590;2024-01-25T16:07:24;46.37;;;13.20;;
8540;SDS011;4308;51.294;6.590;2024-01-25T16:09:51;44.93;;;13.10;;
8540;SDS011;4308;51.294;6.590;2024-01-25T16:12:19;47.80;;;12.70;;
8540;SDS011;4308;51.294;6.590;2024-01-25T16:14:47;36.73;;;11.50;;
8540;SDS011;4308;51.294;6.590;2024-01-25T16:17:15;43.07;;;12.67;;
8540;SDS011;4308;51.294;6.590;2024-01-25T16:19:42;38.43;;;11.47;;
8540;SDS011;4308;51.294;6.590;2024-01-25T16:22:10;39.23;;;10.77;;
8540;SDS011;4308;51.294;6.590;2024-01-25T16:24:38;54.10;;;12.83;;
8540;SDS011;4308;51.294;6.590;2024-01-25T16:27:05;37.17;;;10.93;;
8540;SDS011;4308;51.294;6.590;2024-01-25T16:29:33;38.07;;;11.70;;
8540;SDS011;4308;51.294;6.590;2024-01-25T16:32:01;36.53;;;11.23;;
8540;SDS011;4308;51.294;6.590;2024-01-25T16:34:28;49.20;;;12.27;;
8540;SDS011;4308;51.294;6.590;2024-01-25T16:36:56;38.50;;;11.20;;
8540;SDS011;4308;51.294;6.590;2024-01-25T16:39:24;35.57;;;11.83;;
8540;SDS011;4308;51.294;6.590;2024-01-25T16:41:51;39.47;;;10.97;;
8540;SDS011;4308;51.294;6.590;2024-01-25T16:44:19;37.57;;;11.07;;
8540;SDS011;4308;51.294;6.590;2024-01-25T16:46:46;43.57;;;11.63;;
8540;SDS011;4308;51.294;6.590;2024-01-25T16:49:14;35.47;;;11.97;;
8540;SDS011;4308;51.294;6.590;2024-01-25T16:51:42;45.73;;;12.20;;
8540;SDS011;4308;51.294;6.590;2024-01-25T16:54:10;36.50;;;12.80;;
8540;SDS011;4308;51.294;6.590;2024-01-25T16:56:37;37.93;;;11.97;;
8540;SDS011;4308;51.294;6.590;2024-01-25T16:59:05;39.47;;;12.47;;
8540;SDS011;4308;51.294;6.590;2024-01-25T17:01:32;44.87;;;11.67;;
8540;SDS011;4308;51.294;6.590;2024-01-25T17:04:00;35.90;;;11.10;;
8540;SDS011;4308;51.294;6.590;2024-01-25T17:06:28;36.43;;;11.57;;
8540;SDS011;4308;51.294;6.590;2024-01-25T17:08:56;41.17;;;12.63;;
8540;SDS011;4308;51.294;6.590;2024-01-25T17:11:23;37.70;;;10.83;;
8540;SDS011;4308;51.294;6.590;2024-01-25T17:13:51;39.23;;;12.33;;
8540;SDS011;4308;51.294;6.590;2024-01-25T17:16:19;32.70;;;10.43;;
8540;SDS011;4308;51.294;6.590;2024-01-25T17:18:46;37.93;;;11.87;;
8540;SDS011;4308;51.294;6.590;2024-01-25T17:21:14;34.20;;;10.70;;
8540;SDS011;4308;51.294;6.590;2024-01-25T17:23:42;39.40;;;11.50;;
8540;SDS011;4308;51.294;6.590;2024-01-25T17:26:09;36.40;;;10.40;;
8540;SDS011;4308;51.294;6.590;2024-01-25T17:28:37;38.10;;;10.17;;
8540;SDS011;4308;51.294;6.590;2024-01-25T17:31:05;33.50;;;10.47;;
8540;SDS011;4308;51.294;6.590;2024-01-25T17:33:32;43.20;;;10.73;;
8540;SDS011;4308;51.294;6.590;2024-01-25T17:36:00;35.00;;;10.40;;
8540;SDS011;4308;51.294;6.590;2024-01-25T17:38:28;38.27;;;10.20;;
8540;SDS011;4308;51.294;6.590;2024-01-25T17:40:55;34.47;;;10.20;;
8540;SDS011;4308;51.294;6.590;2024-01-25T17:43:23;30.70;;;9.80;;
8540;SDS011;4308;51.294;6.590;2024-01-25T17:45:51;34.90;;;10.43;;
8540;SDS011;4308;51.294;6.590;2024-01-25T17:48:19;31.83;;;8.60;;
8540;SDS011;4308;51.294;6.590;2024-01-25T17:50:47;34.37;;;8.90;;
8540;SDS011;4308;51.294;6.590;2024-01-25T17:53:15;26.63;;;8.93;;
8540;SDS011;4308;51.294;6.590;2024-01-25T17:55:43;29.67;;;8.60;;
8540;SDS011;4308;51.294;6.590;2024-01-25T17:58:10;31.33;;;8.13;;
8540;SDS011;4308;51.294;6.590;2024-01-25T18:00:38;29.27;;;9.13;;
8540;SDS011;4308;51.294;6.590;2024-01-25T18:03:06;37.17;;;9.43;;